createdAt,value
2018-02-13T00:00:15.528Z,0.05
2018-02-13T00:01:31.075Z,0.16
2018-02-13T00:02:45.925Z,0.31
2018-02-13T00:04:01.248Z,0.29
2018-02-13T00:05:15.591Z,0.36
2018-02-13T00:06:30.224Z,0.47
2018-02-13T00:07:45.672Z,0.48
2018-02-13T00:09:00.637Z,0.55
2018-02-13T00:10:15.545Z,0.67
2018-02-13T00:11:30.513Z,0.67
2018-02-13T00:12:44.719Z,0.76
2018-02-13T00:13:59.115Z,0.71
2018-02-13T00:15:13.100Z,0.74
2018-02-13T00:16:27.855Z,0.85
2018-02-13T00:17:42.832Z,0.76
2018-02-13T00:18:57.736Z,0.82
2018-02-13T00:20:12.770Z,0.71
2018-02-13T00:21:27.434Z,0.73
2018-02-13T00:22:42.453Z,0.71
2018-02-13T00:23:57.108Z,0.76
2018-02-13T00:25:12.526Z,0.7
2018-02-13T00:26:27.113Z,0.67
2018-02-13T00:27:41.702Z,0.76
2018-02-13T00:28:56.383Z,0.68
2018-02-13T00:30:11.130Z,0.71
2018-02-13T00:31:25.799Z,0.68
2018-02-13T00:32:40.999Z,0.73
2018-02-13T00:33:55.311Z,0.77
2018-02-13T00:35:09.659Z,0.77
2018-02-13T00:36:24.696Z,0.82
2018-02-13T00:37:39.285Z,0.76
2018-02-13T00:38:53.943Z,0.88
2018-02-13T00:40:07.772Z,0.92
2018-02-13T00:41:22.626Z,0.89
2018-02-13T00:42:37.577Z,0.89
2018-02-13T00:43:52.218Z,0.85
2018-02-13T00:45:07.408Z,0.86
2018-02-13T00:46:22.262Z,0.85
2018-02-13T00:47:37.645Z,0.91
2018-02-13T00:48:52.208Z,0.94
2018-02-13T00:50:07.366Z,0.84
2018-02-13T00:51:22.843Z,0.99
2018-02-13T00:52:37.588Z,0.91
2018-02-13T00:53:52.180Z,0.99
2018-02-13T00:55:07.359Z,1
2018-02-13T00:56:22.021Z,1
2018-02-13T00:57:37.311Z,0.95
2018-02-13T00:58:52.222Z,0.88
2018-02-13T01:00:06.627Z,0.96
2018-02-13T01:01:21.549Z,0.99
2018-02-13T01:02:35.849Z,0.86
2018-02-13T01:03:50.722Z,0.85
2018-02-13T01:05:05.363Z,0.92
2018-02-13T01:06:19.965Z,1
2018-02-13T01:07:34.613Z,0.91
2018-02-13T01:08:49.299Z,0.99
2018-02-13T01:10:04.827Z,1.09
2018-02-13T01:11:19.113Z,1.07
2018-02-13T01:12:33.979Z,1
2018-02-13T01:13:49.091Z,1.02
2018-02-13T01:15:04.170Z,1.02
2018-02-13T01:16:19.337Z,1.04
2018-02-13T01:17:33.428Z,1.03
2018-02-13T01:18:48.208Z,1.03
2018-02-13T01:20:03.395Z,1.09
2018-02-13T01:21:18.540Z,1.02
2018-02-13T01:22:33.455Z,1.09
2018-02-13T01:23:47.799Z,0.95
2018-02-13T01:25:03.153Z,1
2018-02-13T01:26:17.476Z,1
2018-02-13T01:27:32.023Z,1
2018-02-13T01:28:46.597Z,0.86
2018-02-13T01:30:01.492Z,0.86
2018-02-13T01:31:16.358Z,0.78
2018-02-13T01:32:30.946Z,0.74
2018-02-13T01:33:58.576Z,0.66
2018-02-13T01:35:13.248Z,0.66
2018-02-13T01:36:27.819Z,0.66
2018-02-13T01:37:42.396Z,0.45
2018-02-13T01:38:57.995Z,0.47
2018-02-13T01:40:12.617Z,0.45
2018-02-13T01:41:26.643Z,0.37
2018-02-13T01:42:41.213Z,0.39
2018-02-13T01:43:56.101Z,0.33
2018-02-13T01:45:10.971Z,0.29
2018-02-13T01:46:25.623Z,0.31
2018-02-13T01:47:40.548Z,0.34
2018-02-13T01:48:55.091Z,0.36
2018-02-13T01:50:09.894Z,0.39
2018-02-13T01:51:24.734Z,0.42
2018-02-13T01:52:39.571Z,0.47
2018-02-13T01:53:53.869Z,0.42
2018-02-13T01:55:09.209Z,0.33
2018-02-13T01:56:24.052Z,0.3
2018-02-13T01:57:38.376Z,0.3
2018-02-13T01:58:52.955Z,0.31
2018-02-13T02:00:07.788Z,0.19
2018-02-13T02:01:22.969Z,0.26
2018-02-13T02:02:37.306Z,0.18
2018-02-13T02:03:51.605Z,0.15
2018-02-13T02:05:06.657Z,0.18
2018-02-13T02:06:21.795Z,0.06
2018-02-13T02:07:36.906Z,0.16
2018-02-13T02:08:51.549Z,0.06
2018-02-13T02:10:06.677Z,0.18
2018-02-13T02:11:21.534Z,0.2
2018-02-13T02:12:36.451Z,0.19
2018-02-13T02:13:51.330Z,0.16
2018-02-13T02:15:06.199Z,0.13
2018-02-13T02:16:20.280Z,0.29
2018-02-13T02:17:34.585Z,0.29
2018-02-13T02:18:49.456Z,0.26
2018-02-13T02:20:04.727Z,0.27
2018-02-13T02:21:20.194Z,0.27
2018-02-13T02:22:35.039Z,0.34
2018-02-13T02:23:50.179Z,0.44
2018-02-13T02:25:05.389Z,0.36
2018-02-13T02:26:19.779Z,0.4
2018-02-13T02:27:34.643Z,0.47
2018-02-13T02:28:49.241Z,0.52
2018-02-13T02:30:04.308Z,0.45
2018-02-13T02:31:19.522Z,0.47
2018-02-13T02:32:34.389Z,0.45
2018-02-13T02:33:49.503Z,0.39
2018-02-13T02:35:04.376Z,0.45
2018-02-13T02:36:19.555Z,0.63
2018-02-13T02:37:34.447Z,0.51
2018-02-13T02:38:49.326Z,0.48
2018-02-13T02:40:04.607Z,0.47
2018-02-13T02:41:19.785Z,0.42
2018-02-13T02:42:34.671Z,0.4
2018-02-13T02:43:49.826Z,0.34
2018-02-13T02:45:04.448Z,0.37
2018-02-13T02:46:19.391Z,0.33
2018-02-13T02:47:34.203Z,0.27
2018-02-13T02:48:48.816Z,0.23
2018-02-13T02:50:03.687Z,0.3
2018-02-13T02:51:18.359Z,0.29
2018-02-13T02:52:33.560Z,0.29
2018-02-13T02:53:48.149Z,0.19
2018-02-13T02:55:03.050Z,0.29
2018-02-13T02:56:18.024Z,0.26
2018-02-13T02:57:32.363Z,0.26
2018-02-13T02:58:46.703Z,0.2
2018-02-13T03:00:01.886Z,0.29
2018-02-13T03:01:17.148Z,0.29
2018-02-13T03:02:32.352Z,0.37
2018-02-13T03:03:47.235Z,0.31
2018-02-13T03:05:01.887Z,0.27
2018-02-13T03:06:16.807Z,0.31
2018-02-13T03:07:31.188Z,0.29
2018-02-13T03:08:46.163Z,0.23
2018-02-13T03:10:01.027Z,0.31
2018-02-13T03:11:16.305Z,0.3
2018-02-13T03:12:30.679Z,0.36
2018-02-13T03:13:45.759Z,0.36
2018-02-13T03:15:00.887Z,0.26
2018-02-13T03:16:15.619Z,0.26
2018-02-13T03:17:30.518Z,0.24
2018-02-13T03:18:45.103Z,0.33
2018-02-13T03:20:00.252Z,0.33
2018-02-13T03:21:14.964Z,0.29
2018-02-13T03:22:29.011Z,0.3
2018-02-13T03:23:43.879Z,0.33
2018-02-13T03:24:58.501Z,0.37
2018-02-13T03:26:13.452Z,0.34
2018-02-13T03:27:28.190Z,0.29
2018-02-13T03:28:42.575Z,0.15
2018-02-13T03:29:57.338Z,0.05
2018-02-13T03:31:12.868Z,0.02
2018-02-13T03:32:27.620Z,0.11
2018-02-13T03:33:43.356Z,0.02
2018-02-13T03:34:58.554Z,0
2018-02-13T03:36:13.492Z,-0.03
2018-02-13T03:37:28.622Z,-0.02
2018-02-13T03:38:43.219Z,-0.03
2018-02-13T03:39:58.948Z,-0.05
2018-02-13T03:41:13.252Z,-0.02
2018-02-13T03:42:28.046Z,-0.05
2018-02-13T03:43:43.193Z,-0.03
2018-02-13T03:44:58.298Z,0.05
2018-02-13T03:46:12.919Z,0.05
2018-02-13T03:47:28.182Z,-0.02
2018-02-13T03:48:42.824Z,0.05
2018-02-13T03:49:57.216Z,-0.06
2018-02-13T03:51:12.119Z,-0.03
2018-02-13T03:52:27.426Z,-0.09
2018-02-13T03:53:41.508Z,-0.03
2018-02-13T03:54:56.457Z,0.08
2018-02-13T03:56:11.324Z,0.06
2018-02-13T03:57:26.092Z,0.01
2018-02-13T03:58:41.304Z,0.11
2018-02-13T03:59:56.656Z,0.02
2018-02-13T04:01:11.499Z,0.06
2018-02-13T04:02:26.716Z,-0.03
2018-02-13T04:03:41.299Z,0.02
2018-02-13T04:04:56.212Z,0.11
2018-02-13T04:06:10.856Z,0.05
2018-02-13T04:07:26.062Z,0.06
2018-02-13T04:08:40.625Z,0.06
2018-02-13T04:09:55.280Z,0.08
2018-02-13T04:11:10.447Z,0.08
2018-02-13T04:12:26.061Z,0.02
2018-02-13T04:13:40.700Z,0.09
2018-02-13T04:14:55.355Z,-0.06
2018-02-13T04:16:09.759Z,0.02
2018-02-13T04:17:25.129Z,-0.05
2018-02-13T04:18:40.046Z,-0.07
2018-02-13T04:19:55.061Z,0.01
2018-02-13T04:21:09.099Z,-0.03
2018-02-13T04:22:23.827Z,-0.06
2018-02-13T04:23:39.311Z,-0.1
2018-02-13T04:24:53.992Z,-0.09
2018-02-13T04:26:09.137Z,-0.13
2018-02-13T04:27:24.081Z,-0.07
2018-02-13T04:28:39.092Z,-0.13
2018-02-13T04:29:54.261Z,-0.12
2018-02-13T04:31:09.654Z,-0.13
2018-02-13T04:32:44.271Z,0.05
2018-02-13T04:33:59.027Z,0.01
2018-02-13T04:35:14.036Z,0.24
2018-02-13T04:36:28.739Z,0.18
2018-02-13T04:37:44.056Z,0.08
2018-02-13T04:38:58.844Z,0.18
2018-02-13T04:40:14.303Z,0.27
2018-02-13T04:41:29.251Z,0.24
2018-02-13T04:42:44.221Z,0.29
2018-02-13T04:43:58.803Z,0.02
2018-02-13T04:45:13.965Z,-0.09
2018-02-13T04:46:28.027Z,-0.1
2018-02-13T04:47:43.268Z,-0.07
2018-02-13T04:48:58.419Z,-0.1
2018-02-13T04:50:13.318Z,-0.15
2018-02-13T04:51:28.484Z,-0.17
2018-02-13T04:52:43.654Z,-0.21
2018-02-13T04:53:59.115Z,-0.27
2018-02-13T04:55:14.259Z,-0.23
2018-02-13T04:56:28.623Z,-0.2
2018-02-13T04:57:43.350Z,-0.21
2018-02-13T04:58:58.031Z,-0.26
2018-02-13T05:00:13.150Z,-0.18
2018-02-13T05:01:27.761Z,-0.21
2018-02-13T05:02:42.641Z,-0.15
2018-02-13T05:03:57.772Z,-0.09
2018-02-13T05:05:12.463Z,-0.12
2018-02-13T05:06:27.652Z,-0.21
2018-02-13T05:07:42.567Z,-0.26
2018-02-13T05:08:57.521Z,-0.21
2018-02-13T05:10:12.321Z,-0.23
2018-02-13T05:11:27.212Z,-0.38
2018-02-13T05:12:42.467Z,-0.28
2018-02-13T05:13:57.251Z,-0.36
2018-02-13T05:15:11.815Z,-0.38
2018-02-13T05:16:26.153Z,-0.36
2018-02-13T05:17:40.184Z,-0.31
2018-02-13T05:18:55.442Z,-0.36
2018-02-13T05:20:10.064Z,-0.35
2018-02-13T05:21:24.164Z,-0.51
2018-02-13T05:22:39.304Z,-0.48
2018-02-13T05:23:54.620Z,-0.57
2018-02-13T05:25:10.090Z,-0.62
2018-02-13T05:26:24.952Z,-0.59
2018-02-13T05:27:39.315Z,-0.63
2018-02-13T05:28:54.455Z,-0.56
2018-02-13T05:30:09.647Z,-0.53
2018-02-13T05:31:24.812Z,-0.56
2018-02-13T05:32:38.845Z,-0.57
2018-02-13T05:33:53.638Z,-0.57
2018-02-13T05:35:08.597Z,-0.6
2018-02-13T05:36:22.666Z,-0.64
2018-02-13T05:37:37.540Z,-0.66
2018-02-13T05:38:52.703Z,-0.7
2018-02-13T05:40:07.675Z,-0.7
2018-02-13T05:41:22.085Z,-0.7
2018-02-13T05:42:37.207Z,-0.66
2018-02-13T05:43:52.575Z,-0.66
2018-02-13T05:45:08.019Z,-0.63
2018-02-13T05:46:22.653Z,-0.72
2018-02-13T05:47:37.544Z,-0.66
2018-02-13T05:48:53.658Z,-0.67
2018-02-13T05:50:09.471Z,-0.72
2018-02-13T05:51:24.388Z,-0.69
2018-02-13T05:52:39.017Z,-0.72
2018-02-13T05:53:53.448Z,-0.69
2018-02-13T05:55:08.607Z,-0.69
2018-02-13T05:56:24.361Z,-0.72
2018-02-13T05:57:38.676Z,-0.75
2018-02-13T05:58:53.880Z,-0.94
2018-02-13T06:00:08.228Z,-0.94
2018-02-13T06:01:22.697Z,-0.89
2018-02-13T06:02:37.894Z,-0.93
2018-02-13T06:03:52.590Z,-0.84
2018-02-13T06:05:07.263Z,-0.85
2018-02-13T06:06:22.390Z,-0.93
2018-02-13T06:07:37.860Z,-0.91
2018-02-13T06:08:53.287Z,-0.93
2018-02-13T06:10:07.978Z,-0.91
2018-02-13T06:11:23.123Z,-0.82
2018-02-13T06:12:37.978Z,-0.93
2018-02-13T06:13:52.895Z,-0.8
2018-02-13T06:15:08.375Z,-0.72
2018-02-13T06:16:22.980Z,-0.84
2018-02-13T06:17:38.268Z,-0.85
2018-02-13T06:19:19.567Z,-0.94
2018-02-13T06:20:34.748Z,-0.93
2018-02-13T06:22:47.113Z,-0.94
2018-02-13T06:24:01.755Z,-0.87
2018-02-13T06:25:16.638Z,-0.78
2018-02-13T06:26:31.931Z,-0.72
2018-02-13T06:27:46.545Z,-0.84
2018-02-13T06:29:01.167Z,-0.85
2018-02-13T06:30:15.852Z,-0.99
2018-02-13T06:31:30.499Z,-0.89
2018-02-13T06:32:45.394Z,-0.94
2018-02-13T06:34:00.846Z,-0.93
2018-02-13T06:35:15.577Z,-1.06
2018-02-13T06:36:30.261Z,-1
2018-02-13T06:37:45.391Z,-1.07
2018-02-13T06:39:00.636Z,-1.19
2018-02-13T06:40:15.028Z,-1.07
2018-02-13T06:41:29.963Z,-1.15
2018-02-13T06:42:44.116Z,-1.18
2018-02-13T06:43:58.222Z,-1.15
2018-02-13T06:45:12.748Z,-1.14
2018-02-13T06:46:27.700Z,-1.14
2018-02-13T06:47:42.358Z,-1.18
2018-02-13T06:48:56.933Z,-1.19
2018-02-13T06:50:12.367Z,-1.14
2018-02-13T06:51:27.066Z,-1.17
2018-02-13T06:52:42.009Z,-1.09
2018-02-13T06:53:55.767Z,-0.99
2018-02-13T06:55:10.993Z,-0.94
2018-02-13T06:56:25.485Z,-0.94
2018-02-13T06:57:40.422Z,-0.93
2018-02-13T06:58:55.293Z,-0.93
2018-02-13T07:00:09.900Z,-0.81
2018-02-13T07:01:25.021Z,-0.8
2018-02-13T07:02:39.374Z,-0.74
2018-02-13T07:03:54.774Z,-0.74
2018-02-13T07:05:09.680Z,-0.66
2018-02-13T07:06:24.007Z,-0.74
2018-02-13T07:07:38.937Z,-0.66
2018-02-13T07:08:53.896Z,-0.57
2018-02-13T07:10:09.391Z,-0.54
2018-02-13T07:11:23.862Z,-0.63
2018-02-13T07:12:38.220Z,-0.59
2018-02-13T07:13:53.110Z,-0.63
2018-02-13T07:15:07.519Z,-0.53
2018-02-13T07:16:22.567Z,-0.57
2018-02-13T07:17:37.424Z,-0.59
2018-02-13T07:18:52.085Z,-0.51
2018-02-13T07:20:06.714Z,-0.53
2018-02-13T07:21:21.162Z,-0.45
2018-02-13T07:22:36.784Z,-0.51
2018-02-13T07:23:51.716Z,-0.38
2018-02-13T07:26:13.427Z,-0.35
2018-02-13T07:27:28.402Z,-0.36
2018-02-13T07:28:43.679Z,-0.35
2018-02-13T07:29:58.565Z,-0.38
2018-02-13T07:31:12.975Z,-0.33
2018-02-13T07:32:27.535Z,-0.2
2018-02-13T07:33:41.912Z,-0.23
2018-02-13T07:34:57.005Z,-0.15
2018-02-13T07:36:11.654Z,-0.18
2018-02-13T07:37:26.851Z,-0.09
2018-02-13T07:38:41.986Z,-0.12
2018-02-13T07:39:57.174Z,-0.09
2018-02-13T07:41:13.052Z,-0.21
2018-02-13T07:42:28.423Z,-0.17
2018-02-13T07:43:42.591Z,-0.1
2018-02-13T07:44:57.772Z,-0.07
2018-02-13T07:46:12.376Z,-0.1
2018-02-13T07:47:28.136Z,-0.06
2018-02-13T07:48:42.467Z,0.06
2018-02-13T07:49:57.346Z,0.06
2018-02-13T07:51:11.408Z,0.16
2018-02-13T07:52:26.791Z,0.19
2018-02-13T07:53:41.457Z,0.16
2018-02-13T07:54:56.649Z,0.16
2018-02-13T07:56:11.574Z,0.31
2018-02-13T07:57:26.616Z,0.36
2018-02-13T07:58:40.720Z,0.39
2018-02-13T07:59:55.924Z,0.52
2018-02-13T08:01:10.356Z,0.59
2018-02-13T08:02:25.908Z,0.7
2018-02-13T08:03:41.023Z,0.7
2018-02-13T08:04:55.996Z,0.82
2018-02-13T08:06:11.218Z,0.92
2018-02-13T08:07:26.497Z,0.85
2018-02-13T08:08:41.651Z,0.85
2018-02-13T08:09:56.635Z,0.91
2018-02-13T08:11:10.528Z,0.99
2018-02-13T08:12:26.666Z,0.86
2018-02-13T08:13:41.960Z,1
2018-02-13T08:14:56.121Z,1.06
2018-02-13T08:16:11.255Z,1.09
2018-02-13T08:17:26.575Z,1.24
2018-02-13T08:18:42.310Z,1.25
2018-02-13T08:19:57.669Z,1.38
2018-02-13T08:21:12.381Z,1.52
2018-02-13T08:22:27.271Z,1.53
2018-02-13T08:23:41.643Z,1.63
2018-02-13T08:24:57.384Z,1.76
2018-02-13T08:26:12.133Z,1.79
2018-02-13T08:27:27.411Z,1.84
2018-02-13T08:28:42.141Z,1.89
2018-02-13T08:29:56.811Z,1.95
2018-02-13T08:31:11.573Z,1.88
2018-02-13T08:32:26.600Z,2.04
2018-02-13T08:33:41.003Z,2.05
2018-02-13T08:34:55.164Z,2.04
2018-02-13T08:36:09.805Z,1.82
2018-02-13T08:37:24.757Z,1.67
2018-02-13T08:38:39.999Z,1.58
2018-02-13T08:39:54.718Z,1.4
2018-02-13T08:41:09.701Z,1.3
2018-02-13T08:42:24.543Z,1.21
2018-02-13T08:43:39.836Z,1.25
2018-02-13T08:44:55.057Z,1.3
2018-02-13T08:46:09.860Z,1.39
2018-02-13T08:47:24.883Z,1.38
2018-02-13T08:48:39.928Z,1.43
2018-02-13T08:49:55.368Z,1.57
2018-02-13T08:51:10.686Z,1.52
2018-02-13T08:52:26.008Z,1.57
2018-02-13T08:53:40.802Z,1.52
2018-02-13T08:54:54.940Z,1.61
2018-02-13T08:56:09.584Z,1.58
2018-02-13T08:57:24.750Z,1.52
2018-02-13T08:58:39.718Z,1.56
2018-02-13T09:00:04.222Z,1.53
2018-02-13T09:01:18.909Z,1.57
2018-02-13T09:02:53.263Z,1.66
2018-02-13T09:04:07.384Z,1.64
2018-02-13T09:05:22.373Z,1.64
2018-02-13T09:06:37.735Z,1.64
2018-02-13T09:07:53.184Z,1.67
2018-02-13T09:09:07.935Z,1.66
2018-02-13T09:10:22.702Z,1.81
2018-02-13T09:11:37.737Z,1.78
2018-02-13T09:12:53.413Z,1.85
2018-02-13T09:14:08.921Z,1.86
2018-02-13T09:15:24.181Z,1.95
2018-02-13T09:16:39.291Z,2.04
2018-02-13T09:17:53.866Z,2.12
2018-02-13T09:19:09.375Z,2.1
2018-02-13T09:20:24.838Z,2.21
2018-02-13T09:21:39.762Z,2.19
2018-02-13T09:22:55.256Z,2.26
2018-02-13T09:24:09.153Z,2.22
2018-02-13T09:25:24.104Z,2.22
2018-02-13T09:26:38.775Z,2.26
2018-02-13T09:27:53.809Z,2.4
2018-02-13T09:29:09.082Z,2.33
2018-02-13T09:30:23.770Z,2.39
2018-02-13T09:31:38.521Z,2.34
2018-02-13T09:32:55.214Z,2.37
2018-02-13T09:34:10.181Z,2.41
2018-02-13T09:35:24.661Z,2.41
2018-02-13T09:36:39.357Z,2.65
2018-02-13T09:37:53.787Z,2.68
2018-02-13T09:39:08.478Z,2.7
2018-02-13T09:40:22.954Z,2.76
2018-02-13T09:41:37.351Z,2.79
2018-02-13T09:42:51.687Z,2.83
2018-02-13T09:44:06.613Z,2.87
2018-02-13T09:45:21.297Z,2.88
2018-02-13T09:46:35.856Z,2.98
2018-02-13T09:47:50.850Z,2.94
2018-02-13T09:49:05.945Z,2.97
2018-02-13T09:50:20.630Z,2.94
2018-02-13T09:51:35.892Z,2.98
2018-02-13T09:52:49.766Z,2.98
2018-02-13T09:54:04.558Z,3
2018-02-13T09:55:19.015Z,3.01
2018-02-13T09:56:34.307Z,3.19
2018-02-13T09:57:49.310Z,3.19
2018-02-13T09:59:04.706Z,3.09
2018-02-13T10:00:19.095Z,3.12
2018-02-13T10:01:33.527Z,3.09
2018-02-13T10:02:48.768Z,3.16
2018-02-13T10:04:03.537Z,3.18
2018-02-13T10:05:18.007Z,3.11
2018-02-13T10:06:32.646Z,3.31
2018-02-13T10:07:47.695Z,3.37
2018-02-13T10:09:02.676Z,3.45
2018-02-13T10:10:17.525Z,3.4
2018-02-13T10:11:32.234Z,3.37
2018-02-13T10:12:46.324Z,3.49
2018-02-13T10:14:01.619Z,3.53
2018-02-13T10:15:16.717Z,3.58
2018-02-13T10:16:30.829Z,3.71
2018-02-13T10:17:45.801Z,3.77
2018-02-13T10:19:00.498Z,3.96
2018-02-13T10:20:15.619Z,3.91
2018-02-13T10:21:30.197Z,3.89
2018-02-13T10:22:45.095Z,4.02
2018-02-13T10:24:01.627Z,4.02
2018-02-13T10:25:16.241Z,4.06
2018-02-13T10:26:30.940Z,4
2018-02-13T10:27:46.153Z,3.95
2018-02-13T10:29:00.792Z,3.94
2018-02-13T10:30:16.210Z,4.03
2018-02-13T10:31:30.599Z,4.1
2018-02-13T10:32:45.321Z,4.12
2018-02-13T10:34:00.808Z,4.27
2018-02-13T10:35:15.965Z,4.22
2018-02-13T10:36:30.815Z,4.09
2018-02-13T10:37:45.633Z,4.1
2018-02-13T10:39:00.549Z,4.12
2018-02-13T10:40:15.601Z,4.06
2018-02-13T10:41:30.584Z,4.12
2018-02-13T10:42:45.253Z,4.1
2018-02-13T10:44:00.991Z,4.2
2018-02-13T10:45:16.016Z,4.27
2018-02-13T10:46:31.090Z,4.34
2018-02-13T10:47:46.362Z,4.4
2018-02-13T10:49:01.554Z,4.46
2018-02-13T10:50:16.163Z,4.48
2018-02-13T10:51:31.386Z,4.46
2018-02-13T10:52:46.614Z,4.56
2018-02-13T10:54:02.072Z,4.53
2018-02-13T10:55:17.503Z,4.58
2018-02-13T10:56:32.467Z,4.57
2018-02-13T10:57:47.128Z,4.58
2018-02-13T10:59:02.695Z,4.56
2018-02-13T11:00:17.932Z,4.63
2018-02-13T11:01:33.117Z,4.64
2018-02-13T11:02:47.759Z,4.53
2018-02-13T11:04:02.715Z,4.71
2018-02-13T11:05:17.756Z,4.67
2018-02-13T11:06:32.171Z,4.75
2018-02-13T11:07:47.356Z,4.7
2018-02-13T11:09:27.563Z,4.68
2018-02-13T11:10:42.095Z,4.64
2018-02-13T11:11:57.259Z,4.68
2018-02-13T11:13:11.901Z,4.75
2018-02-13T11:14:26.727Z,4.84
2018-02-13T11:15:41.870Z,4.89
2018-02-13T11:16:57.357Z,4.92
2018-02-13T11:18:12.015Z,4.9
2018-02-13T11:19:27.013Z,4.84
2018-02-13T11:20:42.199Z,4.86
2018-02-13T11:21:56.660Z,4.92
2018-02-13T11:23:11.398Z,4.98
2018-02-13T11:24:26.251Z,4.98
2018-02-13T11:25:41.182Z,5.13
2018-02-13T11:26:55.619Z,5.08
2018-02-13T11:28:10.368Z,5.19
2018-02-13T11:29:25.644Z,5.2
2018-02-13T11:30:40.593Z,5.28
2018-02-13T11:31:55.264Z,5.31
2018-02-13T11:33:10.055Z,5.28
2018-02-13T11:34:24.562Z,5.26
2018-02-13T11:35:40.212Z,5.41
2018-02-13T11:36:55.149Z,5.34
2018-02-13T11:38:09.507Z,5.38
2018-02-13T11:39:23.986Z,5.43
2018-02-13T11:40:39.266Z,5.62
2018-02-13T11:41:54.245Z,5.73
2018-02-13T11:43:09.859Z,5.73
2018-02-13T11:44:25.034Z,5.61
2018-02-13T11:45:40.162Z,5.74
2018-02-13T11:46:55.414Z,5.7
2018-02-13T11:48:09.931Z,5.92
2018-02-13T11:49:24.905Z,6.09
2018-02-13T11:50:39.466Z,6.2
2018-02-13T11:51:53.804Z,6.38
2018-02-13T11:53:08.447Z,6.43
2018-02-13T11:54:23.660Z,6.52
2018-02-13T11:55:38.396Z,6.41
2018-02-13T11:56:53.771Z,6.49
2018-02-13T11:58:09.511Z,6.59
2018-02-13T11:59:24.892Z,6.62
2018-02-13T12:00:39.924Z,6.74
2018-02-13T12:01:54.923Z,6.71
2018-02-13T12:03:10.354Z,6.83
2018-02-13T12:04:25.081Z,6.93
2018-02-13T12:05:40.146Z,7.01
2018-02-13T12:06:55.465Z,6.92
2018-02-13T12:08:10.509Z,7
2018-02-13T12:09:25.516Z,7.04
2018-02-13T12:10:40.210Z,7.21
2018-02-13T12:11:54.898Z,7.39
2018-02-13T12:13:10.136Z,7.4
2018-02-13T12:14:25.107Z,7.44
2018-02-13T12:15:40.055Z,7.33
2018-02-13T12:16:54.500Z,7.31
2018-02-13T12:18:09.223Z,7.32
2018-02-13T12:19:24.564Z,7.23
2018-02-13T12:20:39.483Z,7.32
2018-02-13T12:21:54.730Z,7.4
2018-02-13T12:23:08.890Z,7.46
2018-02-13T12:24:23.392Z,7.41
2018-02-13T12:25:38.844Z,7.29
2018-02-13T12:26:54.068Z,7.36
2018-02-13T12:28:08.474Z,7.62
2018-02-13T12:29:22.607Z,7.75
2018-02-13T12:30:38.080Z,7.96
2018-02-13T12:31:53.310Z,7.84
2018-02-13T12:33:08.037Z,7.59
2018-02-13T12:34:23.042Z,7.47
2018-02-13T12:35:37.822Z,7.44
2018-02-13T12:36:53.065Z,7.41
2018-02-13T12:38:08.053Z,7.25
2018-02-13T12:39:22.313Z,7.29
2018-02-13T12:40:36.704Z,7.13
2018-02-13T12:41:52.384Z,7.01
2018-02-13T12:43:07.294Z,7.03
2018-02-13T12:44:21.502Z,7.01
2018-02-13T12:45:36.385Z,7.13
2018-02-13T12:46:52.025Z,7.14
2018-02-13T12:48:07.224Z,7.23
2018-02-13T12:49:21.131Z,7.28
2018-02-13T12:50:36.158Z,7.28
2018-02-13T12:51:51.230Z,7.28
2018-02-13T12:53:05.907Z,7.37
2018-02-13T12:54:20.644Z,7.36
2018-02-13T12:55:35.033Z,7.32
2018-02-13T12:56:50.169Z,7.15
2018-02-13T12:58:04.352Z,7.13
2018-02-13T12:59:18.813Z,7
2018-02-13T13:00:33.768Z,6.86
2018-02-13T13:01:48.214Z,6.83
2018-02-13T13:03:03.471Z,6.78
2018-02-13T13:04:18.669Z,6.95
2018-02-13T13:05:33.346Z,6.89
2018-02-13T13:06:48.288Z,6.87
2018-02-13T13:08:02.939Z,6.83
2018-02-13T13:09:18.542Z,6.75
2018-02-13T13:10:33.741Z,6.72
2018-02-13T13:11:48.420Z,6.77
2018-02-13T13:13:03.436Z,6.78
2018-02-13T13:14:18.799Z,6.83
2018-02-13T13:15:34.009Z,6.86
2018-02-13T13:16:49.140Z,6.9
2018-02-13T13:18:04.018Z,6.85
2018-02-13T13:19:18.830Z,6.71
2018-02-13T13:20:33.888Z,6.64
2018-02-13T13:21:48.873Z,6.49
2018-02-13T13:23:03.327Z,6.34
2018-02-13T13:24:18.082Z,6.29
2018-02-13T13:25:33.184Z,6.28
2018-02-13T13:26:48.713Z,6.31
2018-02-13T13:28:03.417Z,6.28
2018-02-13T13:29:17.818Z,6.26
2018-02-13T13:30:32.343Z,6.2
2018-02-13T13:31:47.138Z,6.16
2018-02-13T13:33:01.049Z,6.09
2018-02-13T13:34:15.456Z,6.17
2018-02-13T13:35:30.125Z,6.2
2018-02-13T13:36:44.841Z,6.19
2018-02-13T13:38:00.148Z,6.09
2018-02-13T13:39:14.529Z,6.17
2018-02-13T13:40:29.825Z,6.05
2018-02-13T13:41:44.777Z,6.1
2018-02-13T13:42:59.406Z,6.2
2018-02-13T13:44:14.074Z,6.16
2018-02-13T13:45:29.028Z,6.36
2018-02-13T13:46:44.274Z,6.28
2018-02-13T13:47:58.686Z,6.36
2018-02-13T13:49:13.153Z,6.15
2018-02-13T13:50:27.809Z,6.2
2018-02-13T13:51:42.178Z,6.2
2018-02-13T13:52:58.285Z,6.31
2018-02-13T13:54:12.704Z,6.19
2018-02-13T13:55:27.955Z,6.25
2018-02-13T13:56:42.310Z,6.16
2018-02-13T13:57:57.124Z,6.2
2018-02-13T13:59:11.828Z,6.25
2018-02-13T14:00:25.994Z,6.35
2018-02-13T14:01:40.916Z,6.5
2018-02-13T14:02:55.958Z,6.5
2018-02-13T14:04:10.659Z,6.39
2018-02-13T14:05:25.088Z,6.29
2018-02-13T14:06:40.333Z,6.32
2018-02-13T14:07:54.226Z,6.44
2018-02-13T14:09:09.007Z,6.54
2018-02-13T14:10:26.199Z,6.49
2018-02-13T14:12:32.046Z,6.53
2018-02-13T14:13:47.662Z,6.53
2018-02-13T14:15:02.334Z,6.54
2018-02-13T14:17:39.620Z,6.35
2018-02-13T14:18:54.786Z,6.31
2018-02-13T14:20:10.090Z,6.2
2018-02-13T14:21:24.870Z,6.17
2018-02-13T14:22:39.549Z,6.2
2018-02-13T14:23:54.001Z,6.09
2018-02-13T14:25:09.235Z,6.1
2018-02-13T14:26:24.447Z,6.01
2018-02-13T14:27:38.936Z,6.07
2018-02-13T14:28:54.001Z,6.02
2018-02-13T14:30:08.579Z,6.1
2018-02-13T14:31:24.495Z,6.16
2018-02-13T14:32:38.973Z,6.22
2018-02-13T14:33:53.795Z,6.28
2018-02-13T14:35:07.970Z,6.26
2018-02-13T14:36:23.510Z,6.28
2018-02-13T14:37:39.087Z,6.17
2018-02-13T14:38:54.521Z,6.31
2018-02-13T14:40:09.256Z,6.19
2018-02-13T14:41:24.310Z,6.25
2018-02-13T14:42:39.884Z,6.28
2018-02-13T14:43:55.302Z,6.32
2018-02-13T14:45:09.714Z,6.34
2018-02-13T14:46:24.147Z,6.31
2018-02-13T14:47:38.906Z,6.31
2018-02-13T14:48:53.802Z,6.31
2018-02-13T14:50:09.092Z,6.36
2018-02-13T14:51:23.883Z,6.47
2018-02-13T14:52:38.073Z,6.41
2018-02-13T14:53:53.653Z,6.41
2018-02-13T14:55:09.859Z,6.39
2018-02-13T14:56:24.904Z,6.34
2018-02-13T14:57:41.319Z,6.34
2018-02-13T14:58:57.488Z,6.49
2018-02-13T15:00:12.896Z,6.36
2018-02-13T15:01:27.745Z,6.32
2018-02-13T15:02:42.475Z,6.29
2018-02-13T15:03:56.713Z,6.19
2018-02-13T15:05:10.796Z,6.15
2018-02-13T15:06:25.504Z,6.1
2018-02-13T15:07:40.793Z,6.07
2018-02-13T15:08:55.449Z,6.01
2018-02-13T15:10:10.895Z,5.98
2018-02-13T15:15:48.786Z,6.13
2018-02-13T15:17:04.336Z,6.13
2018-02-13T15:18:19.000Z,6.02
2018-02-13T15:19:33.950Z,5.92
2018-02-13T15:20:49.006Z,5.91
2018-02-13T15:22:03.594Z,5.91
2018-02-13T15:23:18.700Z,5.81
2018-02-13T15:24:33.432Z,5.84
2018-02-13T15:25:48.102Z,5.84
2018-02-13T15:27:03.016Z,5.88
2018-02-13T15:28:18.253Z,5.74
2018-02-13T15:29:33.233Z,5.76
2018-02-13T15:30:47.660Z,5.7
2018-02-13T15:32:02.909Z,5.7
2018-02-13T15:33:17.372Z,5.62
2018-02-13T15:34:32.385Z,5.7
2018-02-13T15:35:47.758Z,5.58
2018-02-13T15:37:02.430Z,5.62
2018-02-13T15:38:17.125Z,5.65
2018-02-13T15:39:32.138Z,5.73
2018-02-13T15:40:47.091Z,5.56
2018-02-13T15:42:02.693Z,5.51
2018-02-13T15:43:17.524Z,5.55
2018-02-13T15:44:32.224Z,5.51
2018-02-13T15:45:47.992Z,5.51
2018-02-13T15:47:02.835Z,5.52
2018-02-13T15:48:17.816Z,5.51
2018-02-13T15:49:32.744Z,5.44
2018-02-13T15:50:47.559Z,5.41
2018-02-13T15:52:02.572Z,5.4
2018-02-13T15:53:17.892Z,5.44
2018-02-13T15:54:32.851Z,5.47
2018-02-13T15:55:47.603Z,5.38
2018-02-13T15:57:02.956Z,5.41
2018-02-13T15:58:17.731Z,5.44
2018-02-13T15:59:33.241Z,5.46
2018-02-13T16:00:48.676Z,5.51
2018-02-13T16:02:03.463Z,5.44
2018-02-13T16:03:18.772Z,5.49
2018-02-13T16:04:33.654Z,5.54
2018-02-13T16:05:48.342Z,5.41
2018-02-13T16:07:03.053Z,5.43
2018-02-13T16:08:18.314Z,5.29
2018-02-13T16:09:33.224Z,5.38
2018-02-13T16:10:47.645Z,5.31
2018-02-13T16:12:02.366Z,5.29
2018-02-13T16:13:17.288Z,5.28
2018-02-13T16:14:32.083Z,5.23
2018-02-13T16:15:47.007Z,5.13
2018-02-13T16:17:02.389Z,5.02
2018-02-13T16:18:17.343Z,5.02
2018-02-13T16:19:32.053Z,4.98
2018-02-13T16:20:47.250Z,4.95
2018-02-13T16:22:01.763Z,4.92
2018-02-13T16:23:16.406Z,5.19
2018-02-13T16:24:31.158Z,5.26
2018-02-13T16:25:46.406Z,5.18
2018-02-13T16:27:01.215Z,5.15
2018-02-13T16:28:15.253Z,5.05
2018-02-13T16:29:30.241Z,4.9
2018-02-13T16:30:44.985Z,4.86
2018-02-13T16:32:00.361Z,4.7
2018-02-13T16:33:15.118Z,4.64
2018-02-13T16:34:30.144Z,4.64
2018-02-13T16:35:45.103Z,4.57
2018-02-13T16:37:00.405Z,4.58
2018-02-13T16:38:15.684Z,4.56
2018-02-13T16:39:30.693Z,4.48
2018-02-13T16:40:45.892Z,4.39
2018-02-13T16:42:01.391Z,4.4
2018-02-13T16:43:16.016Z,4.43
2018-02-13T16:44:31.325Z,4.31